Last 7 Days

Upper Lake

Hourly Data | America/Los_Angeles
as of 5/18/21 4:49 PM PDT
Date & Time Temp (°F) Temp2 (°F) RH (%) Dew Pt (°F) Wet Bulb (°F) Wind Dir (°) Wind Spd (mph) Wind Gust (mph) WindChill (°F) Leaf Wet (mins) BatVolt (V) Latest Rain (In) Max Rain Intensity (In/Hr) Rain 24Hr (In) Storm Total (In) Daily Rain (In) Daily Min Temp (°F) Daily Max Temp (°F) Daily Max Wind (mph) Daily Leaf Wet Hrs (hrs)
5/18/21 - 1600 71.9 71.9 31 39.7 53.8 WNW | 290 9.1 21.0 - 0.0 13.2 0.00 - - - 0.00 43.5 73.5 25.5 0.0
5/18/21 - 1500 73.0 73.0 29 38.6 53.7 WNW | 282 8.0 17.6 - 0.0 13.2 0.00 - - - 0.00 43.5 73.5 25.5 0.0
5/18/21 - 1400 72.2 72.4 31 39.8 53.9 W | 274 8.3 19.7 - 0.0 13.2 0.00 - - - 0.00 43.5 72.8 25.5 0.0
5/18/21 - 1300 70.6 70.6 36 42.6 54.6 W | 277 9.3 21.2 - 0.0 13.2 0.00 - - - 0.00 43.5 72.0 25.5 0.0
5/18/21 - 1200 67.2 67.3 43 44.2 54.3 WNW | 290 13.2 24.2 - 0.0 13.2 0.00 - - - 0.00 43.5 69.2 25.5 0.0
5/18/21 - 1100 63.7 64.0 45 42.0 52.1 WNW | 288 14.6 24.7 - 0.0 13.2 0.00 - - - 0.00 43.5 65.7 25.5 0.0
5/18/21 - 1000 61.3 61.4 47 40.8 50.6 WNW | 289 13.8 25.5 - 0.0 13.2 0.00 - - - 0.00 43.5 62.4 25.5 0.0
5/18/21 - 0900 59.3 59.4 54 42.6 50.7 WNW | 301 8.2 20.1 - 0.0 13.3 0.00 - - - 0.00 43.5 60.3 20.1 0.0
5/18/21 - 0800 54.3 54.6 71 44.8 49.8 NNW | 347 4.0 17.8 - 0.0 12.8 0.00 - - - 0.00 43.5 57.8 17.8 0.0
5/18/21 - 0700 46.9 47.4 90 44.1 45.9 NE | 46 3.0 10.0 - 0.0 12.5 0.00 - - - 0.00 43.5 56.3 15.0 0.0
5/18/21 - 0600 44.7 45.0 96 43.5 44.5 NE | 54 4.7 9.2 42.2 0.0 12.5 0.00 - - - 0.00 43.5 56.3 15.0 0.0
5/18/21 - 0500 47.1 47.4 89 44.1 46.1 NNE | 32 4.8 11.8 45.0 0.0 12.5 0.00 - - - 0.00 45.7 56.3 15.0 0.0
5/18/21 - 0400 50.6 51.3 80 44.6 48.0 N | 356 4.5 15.0 - 0.0 12.5 0.00 - - - 0.00 47.3 56.3 15.0 0.0
5/18/21 - 0300 49.4 49.8 85 45.0 47.7 NNE | 29 3.8 8.1 - 0.0 12.5 0.00 - - - 0.00 47.3 56.3 14.7 0.0
5/18/21 - 0200 54.4 54.7 67 43.7 49.2 N | 350 5.0 14.7 - 0.0 12.5 0.00 - - - 0.00 51.1 56.3 14.7 0.0
5/18/21 - 0100 56.0 56.3 62 43.0 49.6 NNW | 331 5.6 14.5 - 0.0 12.6 0.00 - - - 0.00 45.8 77.0 24.3 2.3
5/18/21 - 0000 57.8 58.0 55 41.7 49.7 NW | 307 10.0 21.6 - 0.0 12.6 0.00 - - - 0.00 45.8 77.0 24.3 2.3
5/17/21 - 2300 58.3 58.4 52 41.0 49.6 NW | 304 9.5 19.1 - 0.0 12.6 0.00 - - - 0.00 45.8 77.0 24.3 2.3
5/17/21 - 2200 60.6 60.8 49 41.4 50.7 WNW | 292 8.4 20.0 - 0.0 12.6 0.00 - - - 0.00 45.8 77.0 24.3 2.3
5/17/21 - 2100 62.9 63.0 47 42.1 51.8 WNW | 282 7.8 17.9 - 0.0 12.6 0.00 - - - 0.00 45.8 77.0 24.3 2.3
5/17/21 - 2000 65.6 65.7 45 43.8 53.6 WNW | 288 12.1 24.1 - 0.0 12.7 0.00 - - - 0.00 45.8 77.0 24.3 2.3
5/17/21 - 1900 69.5 69.4 42 45.1 55.5 WNW | 293 13.7 24.0 - 0.0 12.8 0.00 - - - 0.00 45.8 77.0 24.3 2.3
5/17/21 - 1800 73.3 73.2 32 41.8 55.1 WNW | 296 10.9 23.6 - 0.0 13.2 0.00 - - - 0.00 45.8 77.0 24.3 2.3
5/17/21 - 1700 74.6 74.4 34 44.2 56.6 WNW | 299 9.4 23.4 - 0.0 13.1 0.00 - - - 0.00 45.8 77.0 24.3 2.3
5/17/21 - 1600 74.9 74.7 38 47.3 58.1 WNW | 297 9.0 24.3 - 0.0 13.2 0.00 - - - 0.00 45.8 77.0 24.3 2.3
5/17/21 - 1500 76.1 76.0 37 47.8 58.7 WNW | 303 9.9 21.5 - 0.0 13.2 0.00 - - - 0.00 45.8 77.0 21.5 2.3
5/17/21 - 1400 74.6 74.8 40 48.9 58.8 WNW | 284 7.1 17.2 - 0.0 13.2 0.00 - - - 0.00 45.8 76.2 17.2 2.3
5/17/21 - 1300 72.0 72.1 46 49.9 58.7 W | 276 7.8 16.9 - 0.0 13.2 0.00 - - - 0.00 45.8 73.1 16.9 2.3
5/17/21 - 1200 69.2 69.2 50 49.9 57.9 WNW | 288 7.6 14.8 - 0.0 13.1 0.00 - - - 0.00 45.8 71.1 16.3 2.3
5/17/21 - 1100 67.9 67.1 55 51.2 58.3 WSW | 238 5.3 16.3 - 0.0 13.1 0.00 - - - 0.00 45.8 69.6 16.3 2.3
5/17/21 - 1000 64.2 63.2 64 52.0 57.6 S | 189 2.0 6.5 - 0.0 13.1 0.00 - - - 0.00 45.8 66.7 8.4 2.3
5/17/21 - 0900 58.4 58.3 77 51.4 55.2 SW | 235 1.4 4.9 - 0.0 13.3 0.00 - - - 0.00 45.8 61.5 8.4 2.3
5/17/21 - 0800 52.4 52.3 93 50.3 52.1 WNW | 297 2.6 8.4 - 13.1 12.8 0.00 - - - 0.00 45.8 55.2 8.4 2.3
5/17/21 - 0700 47.3 47.6 100 47.2 47.9 WNW | 293 1.4 4.1 - 60.0 12.5 0.00 - - - 0.00 45.8 52.5 7.1 2.1
5/17/21 - 0600 46.9 46.8 100 46.8 47.5 N | 356 1.1 5.0 - 60.0 12.5 0.00 - - - 0.00 46.0 52.5 7.1 1.1
5/17/21 - 0500 47.5 47.8 99 47.3 48.1 NNE | 23 1.6 6.5 - 6.4 12.5 0.00 - - - 0.00 46.8 52.5 7.1 0.1
5/17/21 - 0400 49.2 49.4 98 48.5 49.5 NNE | 16 1.5 5.7 - 0.0 12.5 0.00 - - - 0.00 47.9 52.5 7.1 0.0
5/17/21 - 0300 50.4 50.9 97 49.5 50.7 N | 351 1.9 7.1 - 0.0 12.5 0.00 - - - 0.00 49.6 52.5 7.1 0.0
5/17/21 - 0200 51.3 51.3 96 50.2 51.5 NNW | 332 1.1 4.9 - 0.0 12.5 0.00 - - - 0.00 50.5 52.5 4.9 0.0
5/17/21 - 0100 53.2 53.3 93 51.2 53.0 N | 7 1.5 4.4 - 0.0 12.5 0.00 - - - 0.00 47.7 83.4 18.8 6.1
5/17/21 - 0000 55.0 54.8 90 52.1 54.4 NE | 53 1.6 4.6 - 0.0 12.6 0.00 - - - 0.00 47.7 83.4 18.8 6.1
5/16/21 - 2300 61.5 61.2 61 47.7 54.2 WSW | 257 2.7 8.7 - 0.0 12.6 0.00 - - - 0.00 47.7 83.4 18.8 6.1
5/16/21 - 2200 63.1 63.1 57 47.6 54.7 W | 267 3.0 13.2 - 0.0 12.6 0.00 - - - 0.00 47.7 83.4 18.8 6.1
5/16/21 - 2100 67.3 67.3 46 45.5 55.0 WNW | 300 7.1 17.1 - 0.0 12.6 0.00 - - - 0.00 47.7 83.4 18.8 6.1
5/16/21 - 2000 71.1 71.1 39 45.1 56.0 NW | 308 8.8 18.8 - 0.0 12.7 0.00 - - - 0.00 47.7 83.4 18.8 6.1
5/16/21 - 1900 75.7 75.4 37 47.7 58.5 NW | 313 8.4 17.9 - 0.0 12.8 0.00 - - - 0.00 47.7 83.4 17.9 6.1
5/16/21 - 1800 78.7 78.4 34 47.7 59.3 NW | 315 6.1 15.7 - 0.0 13.1 0.00 - - - 0.00 47.7 83.4 16.9 6.1
5/16/21 - 1700 79.9 79.6 37 51.5 61.4 WNW | 300 7.3 16.9 - 0.0 13.1 0.00 - - - 0.00 47.7 83.4 16.9 6.1
5/16/21 - 1600 81.2 80.9 36 51.8 61.8 WNW | 300 7.0 14.9 - 0.0 13.1 0.00 - - - 0.00 47.7 83.4 14.9 6.1
5/16/21 - 1500 82.3 81.5 35 51.7 62.0 SSE | 154 5.1 11.2 - 0.0 13.1 0.00 - 0.24 0.24 0.00 47.7 83.4 11.2 6.1
5/16/21 - 1400 80.5 80.3 33 48.3 60.0 S | 185 2.7 7.2 - 0.0 13.1 0.00 - 0.24 0.24 0.00 47.7 82.0 8.6 6.1
5/16/21 - 1300 77.6 77.5 36 48.8 59.5 ESE | 123 2.6 7.0 - 0.0 13.1 0.00 - 0.24 0.24 0.00 47.7 79.7 8.6 6.1
5/16/21 - 1200 74.8 74.1 48 54.0 61.8 SSE | 152 3.1 8.6 - 0.0 13.1 0.00 - 0.24 0.24 0.00 47.7 76.9 8.6 6.1
5/16/21 - 1100 72.0 70.7 61 57.7 63.5 SSW | 197 2.0 5.3 - 0.0 13.1 0.00 - 0.24 0.24 0.00 47.7 73.6 7.2 6.1
5/16/21 - 1000 68.4 67.4 68 57.4 62.4 SE | 128 1.7 5.0 - 0.0 13.1 0.00 - 0.24 0.24 0.00 47.7 71.3 7.2 6.1
5/16/21 - 0900 62.3 62.1 84 57.2 60.4 SW | 222 1.2 7.2 - 0.0 13.2 0.00 - 0.24 0.24 0.00 47.7 65.3 7.2 6.1
5/16/21 - 0800 54.8 55.0 99 54.6 55.9 NE | 56 1.6 3.6 - 30.1 12.8 0.00 - 0.24 0.24 0.00 47.7 58.6 4.3 6.1
5/16/21 - 0700 49.5 49.6 100 49.5 50.4 NNW | 339 0.7 2.7 - 60.0 12.5 0.00 - 0.24 0.24 0.00 47.7 55.1 4.3 5.6
5/16/21 - 0600 48.6 48.6 100 48.6 49.4 NW | 315 1.1 4.3 - 60.0 12.4 0.00 - 0.24 0.24 0.00 47.7 55.1 4.3 4.6
5/16/21 - 0500 49.8 49.6 100 49.9 50.7 NNE | 26 0.7 2.7 - 60.0 12.5 0.00 - 0.24 0.24 0.00 48.9 55.1 3.4 3.6
5/16/21 - 0400 51.2 51.0 100 51.2 52.1 NE | 52 0.7 3.2 - 60.0 12.5 0.00 - 0.24 0.24 0.00 50.4 55.1 3.4 2.6
5/16/21 - 0300 52.3 52.1 100 52.3 53.3 NNW | 346 0.9 3.3 - 60.0 12.5 0.00 - 0.24 0.24 0.00 51.4 55.1 3.4 1.6
5/16/21 - 0200 54.0 53.8 100 54.0 55.2 NW | 317 1.3 3.4 - 33.4 12.5 0.00 - 0.24 0.24 0.00 52.9 55.1 3.4 0.6
5/16/21 - 0100 57.1 56.7 95 55.8 57.6 NW | 314 1.4 4.3 - 0.0 12.6 0.00 - 0.24 0.24 0.24 43.3 80.8 30.6 3.3
5/16/21 - 0000 60.9 61.0 84 56.0 59.2 NNW | 332 3.3 13.8 - 0.0 12.6 0.00 - 0.24 0.24 0.24 43.3 80.8 30.6 3.3
5/15/21 - 2300 59.2 59.7 95 57.8 59.8 W | 259 3.2 9.0 - 19.8 12.6 0.00 - 0.24 0.24 0.24 43.3 80.8 30.6 3.3
5/15/21 - 2200 57.8 57.7 100 57.8 59.4 WNW | 289 2.3 5.5 - 55.7 12.6 0.00 - 0.24 0.24 0.24 43.3 80.8 30.6 2.9
5/15/21 - 2100 59.4 59.1 100 59.3 61.1 NW | 310 1.5 4.2 - 0.0 12.6 0.00 - 0.24 0.24 0.24 43.3 80.8 30.6 2.0
5/15/21 - 2000 63.1 62.4 95 61.5 64.0 W | 278 1.7 4.4 - 0.0 12.7 0.00 - 0.24 0.24 0.24 43.3 80.8 30.6 2.0
5/15/21 - 1900 67.0 67.0 87 63.0 66.2 SW | 236 1.2 4.6 - 0.0 12.8 0.00 - 0.24 0.24 0.24 43.3 80.8 30.6 2.0
5/15/21 - 1800 64.4 64.4 92 61.9 64.7 SW | 227 1.8 4.4 - 0.0 13.2 0.00 - 0.24 0.24 0.24 43.3 80.8 30.6 2.0
5/15/21 - 1700 63.2 63.4 87 59.2 62.2 NW | 308 3.0 10.5 - 8.9 13.3 0.00 - 0.24 0.24 0.24 43.3 80.8 30.6 2.0
5/15/21 - 1600 63.7 63.4 72 54.2 58.8 W | 260 7.2 30.6 - 34.6 12.7 0.24 1.12 0.24 0.24 0.24 43.3 80.8 30.6 1.9
5/15/21 - 1500 78.6 78.0 33 46.6 58.7 SW | 226 4.5 12.1 - 1.1 12.9 0.00 - - - 0.00 43.3 80.8 16.4 1.3
5/15/21 - 1400 79.5 79.4 32 47.2 59.2 W | 275 5.1 13.7 - 0.0 13.1 0.00 - - - 0.00 43.3 80.8 16.4 1.3
5/15/21 - 1300 77.2 76.4 36 47.9 59.0 SSE | 152 4.2 9.3 - 0.0 13.1 0.00 - - - 0.00 43.3 79.6 16.4 1.3
5/15/21 - 1200 72.7 72.0 42 48.4 58.1 ESE | 123 2.9 7.8 - 0.0 13.1 0.00 - - - 0.00 43.3 74.3 16.4 1.3
5/15/21 - 1100 69.5 68.7 47 48.6 57.3 ESE | 111 2.6 8.7 - 0.0 13.1 0.00 - - - 0.00 43.3 71.8 16.4 1.3
5/15/21 - 1000 64.8 63.9 55 48.3 55.6 SE | 124 1.2 5.2 - 0.0 13.1 0.00 - - - 0.00 43.3 68.2 16.4 1.3
5/15/21 - 0900 58.0 57.8 72 49.0 53.7 WSW | 250 1.5 4.8 - 0.0 13.2 0.00 - - - 0.00 43.3 62.0 16.4 1.3
5/15/21 - 0800 51.4 51.2 91 48.7 50.7 NE | 40 1.8 5.0 - 2.0 12.8 0.00 - - - 0.00 43.3 55.2 16.4 1.3
5/15/21 - 0700 44.7 44.7 100 44.7 45.2 NNE | 29 0.6 3.8 - 60.0 12.5 0.00 - - - 0.00 43.3 51.8 16.4 1.2
5/15/21 - 0600 44.3 44.3 99 44.2 44.7 NW | 317 0.9 3.7 - 14.2 12.5 0.00 - - - 0.00 43.3 51.8 16.4 0.2
5/15/21 - 0500 45.2 45.0 98 44.8 45.5 N | 10 1.2 3.9 - 0.0 12.5 0.00 - - - 0.00 44.2 51.8 16.4 0.0
5/15/21 - 0400 46.9 46.6 96 45.7 46.8 NW | 321 0.8 3.7 - 0.0 12.5 0.00 - - - 0.00 45.4 51.8 16.4 0.0
5/15/21 - 0300 50.1 49.8 86 46.1 48.6 NNW | 342 1.8 10.4 - 0.0 12.5 0.00 - - - 0.00 48.6 51.8 16.4 0.0
5/15/21 - 0200 51.0 51.0 83 46.0 49.0 WNW | 296 7.7 16.4 - 0.0 12.5 0.00 - - - 0.00 50.7 51.8 16.4 0.0
5/15/21 - 0100 52.0 52.0 80 45.9 49.3 WNW | 290 9.8 19.2 - 0.0 12.5 0.00 - - - 0.00 45.0 82.5 27.3 0.7
5/15/21 - 0000 53.9 53.8 73 45.6 50.0 WNW | 287 9.7 18.3 - 0.0 12.6 0.00 - - - 0.00 45.0 82.5 27.3 0.7
5/14/21 - 2300 56.7 56.7 65 45.1 51.0 WNW | 298 8.8 21.5 - 0.0 12.6 0.00 - - - 0.00 45.0 82.5 27.3 0.7
5/14/21 - 2200 60.1 60.1 56 44.3 51.8 WNW | 290 7.5 19.5 - 0.0 12.6 0.00 - - - 0.00 45.0 82.5 27.3 0.7
5/14/21 - 2100 64.1 64.2 47 43.6 53.0 NW | 306 7.5 20.2 - 0.0 12.6 0.00 - - - 0.00 45.0 82.5 27.3 0.7
5/14/21 - 2000 66.8 66.8 44 44.5 54.3 WNW | 292 8.2 19.8 - 0.0 12.7 0.00 - - - 0.00 45.0 82.5 27.3 0.7
5/14/21 - 1900 70.6 70.5 40 44.9 55.7 WNW | 298 9.5 27.3 - 0.0 12.8 0.00 - - - 0.00 45.0 82.5 27.3 0.7
5/14/21 - 1800 75.2 74.8 32 43.1 56.2 WNW | 295 8.3 20.6 - 0.0 13.2 0.00 - - - 0.00 45.0 82.5 23.1 0.7
5/14/21 - 1700 77.1 76.9 28 41.8 56.2 WNW | 295 8.3 21.4 - 0.0 13.1 0.00 - - - 0.00 45.0 82.5 23.1 0.7
5/14/21 - 1600 80.0 79.8 24 39.8 56.1 WNW | 289 8.4 23.1 - 0.0 13.1 0.00 - - - 0.00 45.0 82.5 23.1 0.7
5/14/21 - 1500 81.5 81.4 24 40.9 56.9 WNW | 293 7.7 19.4 - 0.0 13.1 0.00 - - - 0.00 45.0 82.5 19.4 0.7
5/14/21 - 1400 81.8 81.9 26 43.0 57.8 W | 281 6.8 18.4 - 0.0 13.1 0.00 - - - 0.00 45.0 82.5 18.4 0.7
5/14/21 - 1300 79.4 79.5 30 44.8 58.0 WNW | 288 7.9 17.3 - 0.0 13.1 0.00 - - - 0.00 45.0 81.2 17.3 0.7
5/14/21 - 1200 78.0 78.1 32 45.4 58.0 W | 272 6.6 14.9 - 0.0 13.1 0.00 - - - 0.00 45.0 78.7 14.9 0.7
5/14/21 - 1100 75.0 75.1 35 45.6 57.3 W | 264 5.1 11.8 - 0.0 13.1 0.00 - - - 0.00 45.0 76.7 11.8 0.7
5/14/21 - 1000 71.0 71.2 44 47.9 57.3 WSW | 252 4.4 9.6 - 0.0 13.1 0.00 - - - 0.00 45.0 73.5 9.6 0.7
5/14/21 - 0900 64.6 64.7 57 48.7 55.8 NE | 55 2.0 4.2 - 0.0 13.2 0.00 - - - 0.00 45.0 69.5 5.0 0.7
5/14/21 - 0800 55.5 55.5 84 50.5 53.5 NE | 51 2.0 3.6 - 0.0 12.7 0.00 - - - 0.00 45.0 60.2 5.0 0.7
5/14/21 - 0700 46.6 47.0 100 46.5 47.2 N | 350 1.1 3.9 - 41.8 12.5 0.00 - - - 0.00 45.0 53.5 5.0 0.7
5/14/21 - 0600 46.5 46.3 99 46.2 46.9 N | 5 0.5 2.3 - 1.0 12.4 0.00 - - - 0.00 45.2 53.5 5.0 0.0
5/14/21 - 0500 47.6 47.4 97 46.8 47.8 NNW | 346 0.2 1.9 - 0.0 12.5 0.00 - - - 0.00 46.8 53.5 5.0 0.0
5/14/21 - 0400 48.9 48.9 95 47.5 48.8 NW | 318 0.9 3.5 - 0.0 12.5 0.00 - - - 0.00 47.7 53.5 5.0 0.0
5/14/21 - 0300 50.2 50.3 93 48.3 49.9 NW | 315 0.9 4.1 - 0.0 12.5 0.00 - - - 0.00 49.4 53.5 5.0 0.0
5/14/21 - 0200 52.7 52.6 87 48.9 51.4 NNW | 329 1.2 5.0 - 0.0 12.5 0.00 - - - 0.00 51.6 53.5 5.0 0.0
5/14/21 - 0100 53.7 53.9 87 50.0 52.4 N | 9 1.7 6.4 - 0.0 12.5 0.00 - - - 0.00 43.6 89.5 17.8 0.0
5/14/21 - 0000 55.8 55.5 84 50.9 53.9 NNE | 25 1.3 4.3 - 0.0 12.6 0.00 - - - 0.00 43.6 89.5 17.8 0.0
5/13/21 - 2300 58.6 58.6 70 48.7 53.7 NNW | 334 1.5 6.7 - 0.0 12.6 0.00 - - - 0.00 43.6 89.5 17.8 0.0
5/13/21 - 2200 61.6 61.6 64 49.2 55.1 NW | 312 1.3 4.1 - 0.0 12.6 0.00 - - - 0.00 43.6 89.5 17.8 0.0
5/13/21 - 2100 70.2 69.9 44 46.8 56.6 NW | 307 2.4 9.0 - 0.0 12.6 0.00 - - - 0.00 43.6 89.5 17.8 0.0
5/13/21 - 2000 78.1 78.1 25 38.8 55.3 WNW | 284 6.3 12.9 - 0.0 12.6 0.00 - - - 0.00 43.6 89.5 17.8 0.0
5/13/21 - 1900 82.7 82.6 15 30.2 53.7 WNW | 287 6.9 15.0 - 0.0 12.7 0.00 - - - 0.00 43.6 89.5 17.8 0.0
5/13/21 - 1800 84.8 84.8 17 35.3 55.8 WNW | 282 7.5 17.8 - 0.0 13.1 0.00 - - - 0.00 43.6 89.5 17.8 0.0
5/13/21 - 1700 86.1 86.0 18 37.2 56.6 WNW | 295 8.2 17.6 - 0.0 13.0 0.00 - - - 0.00 43.6 89.5 17.6 0.0
5/13/21 - 1600 87.0 86.9 21 42.8 58.8 WNW | 301 6.8 14.9 - 0.0 13.1 0.00 - - - 0.00 43.6 89.5 15.1 0.0
5/13/21 - 1500 88.0 87.2 18 38.2 57.5 SSW | 202 4.9 15.1 - 0.0 13.1 0.00 - - - 0.00 43.6 89.5 15.1 0.0
5/13/21 - 1400 86.3 85.8 16 34.4 55.8 SE | 133 5.3 10.0 - 0.0 13.1 0.00 - - - 0.00 43.6 87.5 11.4 0.0
5/13/21 - 1300 84.7 84.1 23 42.8 58.4 SE | 140 4.0 11.4 - 0.0 13.0 0.00 - - - 0.00 43.6 85.9 11.4 0.0
5/13/21 - 1200 81.6 80.5 29 46.6 59.3 S | 173 2.9 5.9 - 0.0 13.0 0.00 - - - 0.00 43.6 83.6 5.9 0.0
5/13/21 - 1100 78.1 75.9 31 45.3 57.9 SSE | 165 2.7 5.5 - 0.0 13.0 0.00 - - - 0.00 43.6 80.5 5.5 0.0
5/13/21 - 1000 72.2 70.7 39 45.8 56.6 SE | 146 1.3 3.6 - 0.0 13.1 0.00 - - - 0.00 43.6 75.8 3.6 0.0
5/13/21 - 0900 65.0 64.2 55 48.5 55.8 ESE | 120 0.8 3.4 - 0.0 13.2 0.00 - - - 0.00 43.6 68.5 3.4 0.0
5/13/21 - 0800 55.2 55.6 81 49.1 52.5 NE | 44 0.4 2.6 - 0.0 12.7 0.00 - - - 0.00 43.6 60.2 3.2 0.0
5/13/21 - 0700 45.6 46.2 98 45.1 45.8 NW | 308 0.3 2.5 - 0.0 12.5 0.00 - - - 0.00 43.6 50.5 3.2 0.0
5/13/21 - 0600 44.4 44.4 98 43.9 44.6 WNW | 303 0.6 2.8 - 0.0 12.4 0.00 - - - 0.00 43.6 50.5 3.2 0.0
5/13/21 - 0500 45.7 45.6 97 44.8 45.7 WNW | 290 0.3 2.5 - 0.0 12.5 0.00 - - - 0.00 44.9 50.5 3.2 0.0
5/13/21 - 0400 46.7 46.7 96 45.6 46.7 W | 276 0.3 2.1 - 0.0 12.5 0.00 - - - 0.00 46.2 50.5 3.2 0.0
5/13/21 - 0300 47.5 47.5 93 45.7 47.1 N | 358 0.7 2.6 - 0.0 12.5 0.00 - - - 0.00 46.7 50.5 3.2 0.0
5/13/21 - 0200 49.5 49.2 89 46.5 48.5 N | 354 0.6 3.2 - 0.0 12.5 0.00 - - - 0.00 48.1 50.5 3.2 0.0
5/13/21 - 0100 50.7 50.9 82 45.4 48.5 NW | 315 1.1 4.1 - 0.0 12.5 0.00 - - - 0.00 42.6 89.1 19.1 0.0
5/13/21 - 0000 52.9 52.8 77 45.8 49.7 NW | 305 1.3 4.5 - 0.0 12.6 0.00 - - - 0.00 42.6 89.1 19.1 0.0
5/12/21 - 2300 56.1 56.1 67 45.3 50.8 WNW | 302 1.4 5.3 - 0.0 12.6 0.00 - - - 0.00 42.6 89.1 19.1 0.0
5/12/21 - 2200 59.3 59.0 62 46.2 52.6 NW | 313 1.3 4.1 - 0.0 12.6 0.00 - - - 0.00 42.6 89.1 19.1 0.0
5/12/21 - 2100 68.1 67.8 42 43.6 54.4 WNW | 298 2.6 9.5 - 0.0 12.6 0.00 - - - 0.00 42.6 89.1 19.1 0.0
5/12/21 - 2000 77.1 77.2 24 37.2 54.4 WNW | 294 5.8 11.7 - 0.0 12.6 0.00 - - - 0.00 42.6 89.1 19.1 0.0
5/12/21 - 1900 81.3 81.2 23 39.5 56.3 WNW | 296 7.1 15.6 - 0.0 12.8 0.00 - - - 0.00 42.6 89.1 19.1 0.0
5/12/21 - 1800 83.9 83.7 23 42.6 58.1 WNW | 300 7.7 19.1 - 0.0 13.1 0.00 - - - 0.00 42.6 89.1 19.1 0.0
5/12/21 - 1700 88.0 85.9 17 37.7 57.2 SSW | 197 5.4 13.5 - 0.0 13.0 0.00 - - - 0.00 42.6 89.1 14.7 0.0
5/12/21 - 1600 87.7 86.7 12 28.5 54.6 SE | 144 6.3 14.7 - 0.0 13.1 0.00 - - - 0.00 42.6 88.9 14.7 0.0
5/12/21 - 1500 87.2 86.5 12 28.5 54.5 SE | 133 6.3 12.1 - 0.0 13.1 0.00 - - - 0.00 42.6 87.9 12.1 0.0
5/12/21 - 1400 85.9 85.3 16 34.1 55.6 SE | 133 5.5 10.5 - 0.0 13.1 0.00 - - - 0.00 42.6 87.0 10.5 0.0
5/12/21 - 1300 84.7 84.1 18 36.4 56.1 SE | 138 3.7 9.1 - 0.0 13.0 0.00 - - - 0.00 42.6 85.6 9.1 0.0
5/12/21 - 1200 82.1 81.0 19 36.1 55.4 ESE | 119 2.8 7.0 - 0.0 13.0 0.00 - - - 0.00 42.6 84.1 7.0 0.0
5/12/21 - 1100 77.4 76.0 33 45.7 58.0 S | 178 1.8 4.8 - 0.0 13.0 0.00 - - - 0.00 42.6 80.7 4.9 0.0
5/12/21 - 1000 72.3 70.3 43 48.6 58.1 SSE | 160 1.5 4.2 - 0.0 13.1 0.00 - - - 0.00 42.6 75.6 4.9 0.0
5/12/21 - 0900 65.7 64.3 53 48.2 55.9 S | 185 0.8 3.6 - 0.0 13.2 0.00 - - - 0.00 42.6 69.5 4.9 0.0
5/12/21 - 0800 52.4 53.7 82 46.8 50.0 WNW | 297 0.2 1.2 - 0.0 12.7 0.00 - - - 0.00 42.6 59.9 4.9 0.0
5/12/21 - 0700 43.8 44.0 96 42.8 43.7 WNW | 298 0.2 1.5 - 0.0 12.5 0.00 - - - 0.00 42.6 49.6 4.9 0.0
5/12/21 - 0600 43.3 43.4 96 42.1 43.1 WNW | 301 0.7 2.5 - 0.0 12.4 0.00 - - - 0.00 42.6 49.6 4.9 0.0
5/12/21 - 0500 44.6 44.4 93 42.6 44.0 N | 355 0.5 2.7 - 0.0 12.5 0.00 - - - 0.00 43.2 49.6 4.9 0.0
5/12/21 - 0400 45.1 45.1 90 42.2 44.1 N | 358 1.0 4.9 - 0.0 12.5 0.00 - - - 0.00 44.2 49.6 4.9 0.0
5/12/21 - 0300 46.6 46.6 85 42.2 44.8 W | 280 1.0 3.5 - 0.0 12.5 0.00 - - - 0.00 45.7 49.6 4.2 0.0
5/12/21 - 0200 48.0 47.9 80 42.1 45.5 WNW | 284 0.9 4.2 - 0.0 12.5 0.00 - - - 0.00 47.1 49.6 4.2 0.0
5/12/21 - 0100 49.5 49.6 75 41.8 46.1 NW | 305 1.1 4.9 - 0.0 12.5 0.00 - - - 0.00 40.9 88.9 21.7 0.8
5/12/21 - 0000 51.8 51.7 67 41.1 46.8 NW | 312 1.3 5.5 - 0.0 12.6 0.00 - - - 0.00 40.9 88.9 21.7 0.8
5/11/21 - 2300 54.6 54.5 56 39.0 47.1 NW | 310 1.7 3.7 - 0.0 12.6 0.00 - - - 0.00 40.9 88.9 21.7 0.8
5/11/21 - 2200 57.9 58.0 50 39.3 48.7 NW | 308 2.0 4.9 - 0.0 12.6 0.00 - - - 0.00 40.9 88.9 21.7 0.8
5/11/21 - 2100 66.4 65.5 39 39.9 52.2 W | 273 1.7 6.1 - 0.0 12.6 0.00 - - - 0.00 40.9 88.9 21.7 0.8
5/11/21 - 2000 77.0 76.9 18 29.9 52.0 WNW | 300 5.9 13.2 - 0.0 12.6 0.00 - - - 0.00 40.9 88.9 21.7 0.8
5/11/21 - 1900 81.1 80.9 15 29.1 53.0 NW | 307 7.7 17.0 - 0.0 12.8 0.00 - - - 0.00 40.9 88.9 21.7 0.8
5/11/21 - 1800 83.0 82.9 15 30.9 54.0 NW | 306 9.7 21.7 - 0.0 13.1 0.00 - - - 0.00 40.9 88.9 21.7 0.8
5/11/21 - 1700 87.1 85.8 15 33.3 55.7 SW | 228 4.8 16.9 - 0.0 13.0 0.00 - - - 0.00 40.9 88.9 16.9 0.8
Max 88.0 87.2 100 63.0 66.2 - 14.6 30.6 45.0 60.0 13.3 0.24 - 0.24 0.24 0.24 52.9 89.5 30.6 6.1
Avg 63.8 63.6 60 45.7 53.6 - 4.2 10.7 43.6 4.4 12.8 0.00 - 0.24 0.24 - - - - -
Min 43.3 43.4 12 28.5 43.1 - 0.2 1.2 42.2 0.0 12.4 0.00 - 0.24 0.24 0.00 40.9 49.6 3.2 0.0
Total - - - - - - - - - - - 0.24 - - - - - - - -